OISL  Lar  Airport

Lar, Iran

Add Bookmark
ICAO OISL
IATA LRR
Type Airport
Status Operational
Latitude
27° 40' 28" N
27.674700
Longitude
54° 22' 59" E
54.383301
Local (DST + 5) UTC (GMT + 4)
Apr 26, 2015 12:15 Apr 25, 2015 19:45
Sunrise-Sunset Local UTC
Begin Civil Twilight 05:51 01:21
Sunrise 06:16 01:46
Sunset 07:24 14:54
End Civil Twilight 07:48 15:18
VFR
VFR
MVFR
MVFR
IFR
VFR
LIFR
VFR
Unknown
Unavailable

Current Weather

METAR Observed MVFR
OISL 251800Z 28008KT 5000 DU NSC 29/09 Q1013 Sat, Apr 25, 2015 @ 18:00 UTC
(1 Hour, 45 Minutes ago)
Marginal Visual Flight Rules
Wind Visibility Conditions
280° at 8 knots (15 kph) 5,005 m
  • Dust
Temperatures Readings Precipitation
Current Temp
29°C
84°F
Dewpoint
9°C
48°F
Humidity 29%
Altimeter 29.91" Hg
Sea Level Pressure 1,013 mb
Field Elevation
805 m
2,641 ft
None Recorded
-
-

CheckWX.com is intended as a tool to help pilots better visualize weather data. It is not intended as a substitute for an official weather briefing obtained from a Flight Service Station. CheckWX.com does not meet the FAA requirements for an official pre-flight weather briefing. Therefore, it's important that pilots still call and obtain an official FSS pre-flight weather briefing.

© 2007-2015 CheckWX.com
19:45:04 UTC